NOZ2504 EFHK-EICK
Flight info
| Callsign | NOZ2504 |
|---|---|
| Flight time | N/A |
| Altitude | 36000 |
| Route | KUVEM Y366 USITU DCT PETEV DCT SONIX DCT LG/N0443F380 DCT DANKO P15 VAXIT DCT REKNA DCT CUTEL DCT BEVAM DCT RITSI DCT ZOFAT DCT MAC DCT NIPIT DCT CRK |
| Aircraft | B738/M-SDE2E3FGHIRWXY/LB1 |
Departure
| Time | 2026-04-25 20:27 |
|---|---|
| Airport | Helsinki Vantaa Airport (EFHK) |
Arrival
| Time | N/A |
|---|---|
| Airport | Cork International Airport (EICK) |
| Time | Latitude | Longitude | Altitude | Speed | Heading |
|---|---|---|---|---|---|
| 2026-04-25 19:49 | 60.31416 | 24.95510 | 159 ft | 0 kts | 137° |
| 2026-04-25 19:53 | 60.31416 | 24.95509 | 159 ft | 0 kts | 137° |
| 2026-04-25 20:04 | 60.31416 | 24.95508 | 159 ft | 0 kts | 137° |
| 2026-04-25 20:04 | 60.31417 | 24.95508 | 159 ft | 0 kts | 137° |
| 2026-04-25 20:15 | 60.31427 | 24.95490 | 159 ft | 4 kts | 135° |
| 2026-04-25 20:15 | 60.31443 | 24.95457 | 159 ft | 3 kts | 139° |
| 2026-04-25 20:15 | 60.31464 | 24.95433 | 158 ft | 4 kts | 178° |
| 2026-04-25 20:15 | 60.31489 | 24.95444 | 158 ft | 4 kts | 211° |
| 2026-04-25 20:16 | 60.31505 | 24.95467 | 158 ft | 0 kts | 225° |
| 2026-04-25 20:20 | 60.31498 | 24.95452 | 158 ft | 4 kts | 223° |
| 2026-04-25 20:21 | 60.31463 | 24.95376 | 158 ft | 10 kts | 235° |
| 2026-04-25 20:21 | 60.31477 | 24.95220 | 157 ft | 15 kts | 313° |
| 2026-04-25 20:21 | 60.31509 | 24.95063 | 155 ft | 5 kts | 251° |
| 2026-04-25 20:21 | 60.31488 | 24.95004 | 155 ft | 5 kts | 228° |
| 2026-04-25 20:22 | 60.31459 | 24.94936 | 155 ft | 8 kts | 230° |
| 2026-04-25 20:22 | 60.31426 | 24.94857 | 154 ft | 14 kts | 230° |
| 2026-04-25 20:22 | 60.31305 | 24.94589 | 152 ft | 23 kts | 227° |
| 2026-04-25 20:22 | 60.31201 | 24.94355 | 151 ft | 22 kts | 227° |
| 2026-04-25 20:23 | 60.31101 | 24.94139 | 150 ft | 17 kts | 227° |
| 2026-04-25 20:23 | 60.31020 | 24.93964 | 149 ft | 15 kts | 229° |
| 2026-04-25 20:23 | 60.30978 | 24.93839 | 148 ft | 9 kts | 254° |
| 2026-04-25 20:23 | 60.30990 | 24.93728 | 147 ft | 0 kts | 310° |
| 2026-04-25 20:24 | 60.30989 | 24.93728 | 147 ft | 0 kts | 310° |
| 2026-04-25 20:24 | 60.30989 | 24.93729 | 147 ft | 0 kts | 310° |
| 2026-04-25 20:25 | 60.30990 | 24.93728 | 147 ft | 0 kts | 310° |
| 2026-04-25 20:25 | 60.30995 | 24.93716 | 147 ft | 2 kts | 313° |
| 2026-04-25 20:25 | 60.31026 | 24.93659 | 147 ft | 7 kts | 323° |
| 2026-04-25 20:26 | 60.31077 | 24.93619 | 145 ft | 8 kts | 349° |
| 2026-04-25 20:26 | 60.31132 | 24.93645 | 145 ft | 9 kts | 34° |
| 2026-04-25 20:26 | 60.31189 | 24.93761 | 147 ft | 17 kts | 49° |
| 2026-04-25 20:26 | 60.31385 | 24.94192 | 153 ft | 74 kts | 47° |
| 2026-04-25 20:27 | 60.31875 | 24.95266 | 158 ft | 132 kts | 46° |
| 2026-04-25 20:27 | 60.32570 | 24.96871 | 329 ft | 166 kts | 44° |
| 2026-04-25 20:27 | 60.33395 | 24.98714 | 778 ft | 187 kts | 38° |
| 2026-04-25 20:27 | 60.34308 | 25.00578 | 1479 ft | 187 kts | 36° |
| 2026-04-25 20:28 | 60.35224 | 25.02411 | 2029 ft | 188 kts | 36° |
| 2026-04-25 20:28 | 60.36180 | 25.04398 | 2381 ft | 201 kts | 39° |
| 2026-04-25 20:28 | 60.37138 | 25.06488 | 2998 ft | 201 kts | 41° |
| 2026-04-25 20:28 | 60.38106 | 25.08665 | 3327 ft | 215 kts | 42° |
| 2026-04-25 20:29 | 60.39122 | 25.10966 | 3721 ft | 223 kts | 43° |
| 2026-04-25 20:29 | 60.40352 | 25.12790 | 4229 ft | 218 kts | 17° |
| 2026-04-25 20:29 | 60.41849 | 25.13031 | 4878 ft | 213 kts | 357° |
| 2026-04-25 20:29 | 60.43356 | 25.12906 | 5277 ft | 221 kts | 359° |
| 2026-04-25 20:30 | 60.44893 | 25.12938 | 5776 ft | 224 kts | 1° |
| 2026-04-25 20:30 | 60.46507 | 25.12946 | 6122 ft | 229 kts | 359° |
| 2026-04-25 20:30 | 60.48042 | 25.12802 | 6909 ft | 219 kts | 352° |
| 2026-04-25 20:30 | 60.49542 | 25.11720 | 6935 ft | 244 kts | 331° |
| 2026-04-25 20:31 | 60.50816 | 25.09196 | 6769 ft | 276 kts | 304° |
| 2026-04-25 20:31 | 60.51204 | 25.05434 | 6871 ft | 267 kts | 271° |
| 2026-04-25 20:31 | 60.50918 | 25.01837 | 6935 ft | 251 kts | 264° |
| 2026-04-25 20:31 | 60.50716 | 24.98415 | 6908 ft | 241 kts | 274° |
| 2026-04-25 20:32 | 60.50721 | 24.94969 | 6984 ft | 253 kts | 278° |
| 2026-04-25 20:32 | 60.50700 | 24.91254 | 7184 ft | 275 kts | 268° |
| 2026-04-25 20:32 | 60.50241 | 24.87356 | 7734 ft | 290 kts | 258° |
| 2026-04-25 20:32 | 60.49586 | 24.83494 | 8649 ft | 286 kts | 256° |
| 2026-04-25 20:33 | 60.48899 | 24.79718 | 9524 ft | 285 kts | 254° |
| 2026-04-25 20:33 | 60.48205 | 24.75844 | 9904 ft | 302 kts | 254° |
| 2026-04-25 20:33 | 60.47471 | 24.71692 | 10082 ft | 323 kts | 254° |
| 2026-04-25 20:33 | 60.47225 | 24.70280 | 10161 ft | 329 kts | 254° |
| 2026-04-25 20:34 | 60.45923 | 24.62752 | 11072 ft | 342 kts | 255° |
| 2026-04-25 20:34 | 60.45136 | 24.58181 | 11777 ft | 345 kts | 254° |
| 2026-04-25 20:34 | 60.44344 | 24.53574 | 12538 ft | 347 kts | 254° |
| 2026-04-25 20:34 | 60.43550 | 24.48930 | 13292 ft | 350 kts | 254° |
| 2026-04-25 20:35 | 60.42761 | 24.44314 | 13954 ft | 354 kts | 255° |
| 2026-04-25 20:35 | 60.41953 | 24.39585 | 14684 ft | 356 kts | 255° |
| 2026-04-25 20:35 | 60.41139 | 24.34832 | 15437 ft | 358 kts | 252° |
| 2026-04-25 20:35 | 60.40317 | 24.30049 | 16188 ft | 361 kts | 253° |
| 2026-04-25 20:36 | 60.39491 | 24.25233 | 16883 ft | 364 kts | 252° |
| 2026-04-25 20:36 | 60.38656 | 24.20380 | 17534 ft | 368 kts | 253° |
| 2026-04-25 20:36 | 60.37808 | 24.15456 | 18142 ft | 372 kts | 254° |
| 2026-04-25 20:36 | 60.36952 | 24.10515 | 18769 ft | 374 kts | 252° |
| 2026-04-25 20:37 | 60.36089 | 24.05545 | 19392 ft | 377 kts | 254° |
| 2026-04-25 20:37 | 60.35213 | 24.00527 | 19951 ft | 380 kts | 253° |
| 2026-04-25 20:37 | 60.34334 | 23.95507 | 20663 ft | 379 kts | 255° |
| 2026-04-25 20:37 | 60.33452 | 23.90484 | 21332 ft | 380 kts | 254° |
| 2026-04-25 20:38 | 60.32566 | 23.85429 | 21858 ft | 383 kts | 254° |
| 2026-04-25 20:38 | 60.31667 | 23.80342 | 22327 ft | 388 kts | 254° |
| 2026-04-25 20:38 | 60.30763 | 23.75207 | 22980 ft | 388 kts | 252° |
| 2026-04-25 20:38 | 60.29861 | 23.70097 | 23626 ft | 386 kts | 253° |
| 2026-04-25 20:39 | 60.28964 | 23.65032 | 24233 ft | 383 kts | 252° |
| 2026-04-25 20:39 | 60.28061 | 23.59941 | 24579 ft | 389 kts | 252° |
| 2026-04-25 20:39 | 60.27133 | 23.54724 | 24728 ft | 399 kts | 252° |
| 2026-04-25 20:39 | 60.26816 | 23.52953 | 24843 ft | 401 kts | 253° |
| 2026-04-25 20:40 | 60.25233 | 23.44123 | 25480 ft | 406 kts | 251° |
| 2026-04-25 20:40 | 60.24271 | 23.38776 | 25829 ft | 409 kts | 252° |
| 2026-04-25 20:40 | 60.23295 | 23.33350 | 26146 ft | 414 kts | 253° |
| 2026-04-25 20:40 | 60.22305 | 23.27864 | 26427 ft | 419 kts | 253° |
| 2026-04-25 20:41 | 60.21309 | 23.22369 | 26826 ft | 421 kts | 252° |
| 2026-04-25 20:41 | 60.20297 | 23.16803 | 27077 ft | 426 kts | 252° |
| 2026-04-25 20:41 | 60.19275 | 23.11203 | 27468 ft | 426 kts | 252° |
| 2026-04-25 20:41 | 60.18249 | 23.05613 | 27930 ft | 426 kts | 252° |
| 2026-04-25 20:42 | 60.17221 | 23.00015 | 28247 ft | 429 kts | 252° |
| 2026-04-25 20:42 | 60.16180 | 22.94371 | 28480 ft | 434 kts | 252° |
| 2026-04-25 20:42 | 60.15129 | 22.88672 | 28849 ft | 435 kts | 252° |
| 2026-04-25 20:42 | 60.14075 | 22.82964 | 29195 ft | 437 kts | 252° |
| 2026-04-25 20:43 | 60.13014 | 22.77247 | 29566 ft | 438 kts | 251° |
| 2026-04-25 20:43 | 60.11945 | 22.71504 | 29809 ft | 441 kts | 252° |
| 2026-04-25 20:43 | 60.10874 | 22.65765 | 30201 ft | 438 kts | 252° |
| 2026-04-25 20:43 | 60.09805 | 22.60068 | 30601 ft | 437 kts | 252° |
| 2026-04-25 20:44 | 60.08731 | 22.54358 | 30777 ft | 441 kts | 251° |
| 2026-04-25 20:44 | 60.07645 | 22.48594 | 31058 ft | 441 kts | 252° |
| 2026-04-25 20:44 | 60.06563 | 22.42869 | 31418 ft | 440 kts | 252° |
| 2026-04-25 20:44 | 60.05474 | 22.37119 | 31574 ft | 444 kts | 251° |
| 2026-04-25 20:45 | 60.04373 | 22.31323 | 31738 ft | 447 kts | 252° |
| 2026-04-25 20:45 | 60.03650 | 22.27529 | 32032 ft | 444 kts | 252° |
| 2026-04-25 20:45 | 60.02544 | 22.21756 | 32532 ft | 439 kts | 253° |
| 2026-04-25 20:45 | 60.01452 | 22.16067 | 32830 ft | 439 kts | 252° |
| 2026-04-25 20:46 | 60.00353 | 22.10345 | 32959 ft | 443 kts | 252° |
| 2026-04-25 20:46 | 59.99251 | 22.04625 | 33312 ft | 441 kts | 252° |
| 2026-04-25 20:46 | 59.98152 | 21.98941 | 33738 ft | 437 kts | 252° |
| 2026-04-25 20:46 | 59.97053 | 21.93276 | 33886 ft | 440 kts | 251° |
| 2026-04-25 20:47 | 59.95943 | 21.87566 | 34030 ft | 441 kts | 252° |
| 2026-04-25 20:47 | 59.94833 | 21.81873 | 34303 ft | 439 kts | 252° |
| 2026-04-25 20:47 | 59.93726 | 21.76199 | 34540 ft | 439 kts | 251° |
| 2026-04-25 20:47 | 59.92614 | 21.70525 | 34671 ft | 441 kts | 252° |
| 2026-04-25 20:48 | 59.91496 | 21.64844 | 34934 ft | 439 kts | 252° |
| 2026-04-25 20:48 | 59.90383 | 21.59195 | 35207 ft | 438 kts | 252° |
| 2026-04-25 20:48 | 59.88134 | 21.47818 | 35373 ft | 444 kts | 251° |
| 2026-04-25 20:49 | 59.87001 | 21.42129 | 35601 ft | 441 kts | 252° |
| 2026-04-25 20:49 | 59.85890 | 21.36439 | 35633 ft | 440 kts | 255° |
| 2026-04-25 20:49 | 59.84270 | 21.24698 | 35677 ft | 442 kts | 259° |
| 2026-04-25 20:50 | 59.82745 | 21.12882 | 35670 ft | 442 kts | 259° |
| 2026-04-25 20:50 | 59.81194 | 21.01062 | 35675 ft | 442 kts | 259° |
| 2026-04-25 20:51 | 59.79619 | 20.89278 | 35686 ft | 442 kts | 258° |
| 2026-04-25 20:51 | 59.78041 | 20.77582 | 35684 ft | 441 kts | 258° |
| 2026-04-25 20:52 | 59.76702 | 20.67739 | 35685 ft | 441 kts | 258° |
| 2026-04-25 20:52 | 59.74831 | 20.54097 | 35711 ft | 441 kts | 258° |
| 2026-04-25 20:53 | 59.73207 | 20.42343 | 35697 ft | 442 kts | 258° |
| 2026-04-25 20:53 | 59.71572 | 20.30597 | 35724 ft | 443 kts | 258° |
| 2026-04-25 20:54 | 59.69923 | 20.18829 | 35727 ft | 444 kts | 258° |
| 2026-04-25 20:54 | 59.68259 | 20.07048 | 35728 ft | 444 kts | 258° |
| 2026-04-25 20:55 | 59.66582 | 19.95271 | 35721 ft | 445 kts | 258° |
| 2026-04-25 20:55 | 59.64892 | 19.83486 | 35736 ft | 446 kts | 258° |
| 2026-04-25 20:56 | 59.63190 | 19.71693 | 35746 ft | 447 kts | 258° |
| 2026-04-25 20:56 | 59.61473 | 19.59885 | 35741 ft | 447 kts | 258° |
| 2026-04-25 20:57 | 59.59742 | 19.48070 | 35741 ft | 448 kts | 258° |
| 2026-04-25 20:57 | 59.58000 | 19.36260 | 35744 ft | 448 kts | 258° |
| 2026-04-25 20:58 | 59.56245 | 19.24455 | 35764 ft | 449 kts | 258° |
| 2026-04-25 20:58 | 59.54479 | 19.12653 | 35764 ft | 449 kts | 257° |
| 2026-04-25 20:59 | 59.52702 | 19.00857 | 35772 ft | 449 kts | 257° |
| 2026-04-25 20:59 | 59.50905 | 18.89086 | 35772 ft | 449 kts | 257° |
| 2026-04-25 21:00 | 59.49417 | 18.79317 | 35778 ft | 448 kts | 257° |
| 2026-04-25 21:01 | 59.46409 | 18.59748 | 35787 ft | 448 kts | 257° |
| 2026-04-25 21:01 | 59.44588 | 18.48032 | 35784 ft | 448 kts | 257° |
| 2026-04-25 21:02 | 59.42759 | 18.36350 | 35783 ft | 446 kts | 257° |
| 2026-04-25 21:02 | 59.40937 | 18.24788 | 35790 ft | 446 kts | 257° |
| 2026-04-25 21:03 | 59.39093 | 18.13168 | 35791 ft | 446 kts | 257° |
| 2026-04-25 21:03 | 59.37238 | 18.01552 | 35798 ft | 446 kts | 257° |
| 2026-04-25 21:04 | 59.35372 | 17.89938 | 35802 ft | 446 kts | 257° |
| 2026-04-25 21:04 | 59.33494 | 17.78335 | 35807 ft | 447 kts | 257° |
| 2026-04-25 21:05 | 59.31605 | 17.66736 | 35811 ft | 447 kts | 257° |
| 2026-04-25 21:05 | 59.29707 | 17.55158 | 35804 ft | 447 kts | 257° |
| 2026-04-25 21:06 | 59.27798 | 17.43592 | 35810 ft | 447 kts | 257° |
| 2026-04-25 21:06 | 59.25878 | 17.32032 | 35817 ft | 447 kts | 257° |
| 2026-04-25 21:07 | 59.23948 | 17.20485 | 35831 ft | 447 kts | 257° |
| 2026-04-25 21:07 | 59.22010 | 17.08944 | 35833 ft | 448 kts | 257° |
| 2026-04-25 21:08 | 59.20063 | 16.97385 | 35836 ft | 448 kts | 258° |
| 2026-04-25 21:08 | 59.18182 | 16.85800 | 35825 ft | 447 kts | 259° |
| 2026-04-25 21:09 | 59.15378 | 16.68461 | 35846 ft | 447 kts | 259° |
| 2026-04-25 21:09 | 59.13484 | 16.56904 | 35861 ft | 448 kts | 258° |
| 2026-04-25 21:10 | 59.11578 | 16.45372 | 35851 ft | 448 kts | 258° |
| 2026-04-25 21:10 | 59.09659 | 16.33845 | 35855 ft | 448 kts | 258° |
| 2026-04-25 21:11 | 59.07731 | 16.22335 | 35877 ft | 448 kts | 258° |
| 2026-04-25 21:11 | 59.05791 | 16.10828 | 35844 ft | 448 kts | 259° |
| 2026-04-25 21:12 | 59.03845 | 15.99356 | 35875 ft | 447 kts | 259° |
| 2026-04-25 21:12 | 59.02223 | 15.89845 | 35883 ft | 447 kts | 259° |
| 2026-04-25 21:13 | 58.99928 | 15.76478 | 35886 ft | 447 kts | 259° |
| 2026-04-25 21:13 | 58.97956 | 15.65073 | 35898 ft | 446 kts | 259° |
| 2026-04-25 21:14 | 58.95975 | 15.53679 | 35895 ft | 446 kts | 259° |
| 2026-04-25 21:14 | 58.93982 | 15.42298 | 35888 ft | 445 kts | 259° |
| 2026-04-25 21:15 | 58.92002 | 15.31052 | 35903 ft | 444 kts | 259° |
| 2026-04-25 21:15 | 58.89989 | 15.19690 | 35909 ft | 443 kts | 259° |
| 2026-04-25 21:16 | 58.88143 | 15.09325 | 35929 ft | 443 kts | 259° |